Time;durP1;ratioP1;P1;durP2;ratioP2;P2;SDS_P1;SDS_P2;PMS_P1;PMS_P2;Temp;Humidity;BMP_temperature;BMP_pressure;BME280_temperature;BME280_humidity;BME280_pressure;Samples;Min_cycle;Max_cycle;Signal;HPM_P1;HPM_P2
2022/12/04 00:02:19;;;;;;;35.37;21.30;;;0.80;99.90;;;;;;5060817;28;20443;-65
2022/12/04 00:04:47;;;;;;;34.23;20.27;;;0.80;99.90;;;;;;5060707;28;20559;-65
2022/12/04 00:07:14;;;;;;;34.10;19.53;;;0.80;99.90;;;;;;5061258;28;20440;-65
2022/12/04 00:09:43;;;;;;;35.77;21.53;;;0.80;99.90;;;;;;5061073;28;20437;-65
2022/12/04 00:12:13;;;;;;;38.10;21.93;;;0.70;99.90;;;;;;5060713;28;20476;-65
2022/12/04 00:14:40;;;;;;;36.57;19.53;;;0.70;99.90;;;;;;5060195;28;20473;-65
2022/12/04 00:17:07;;;;;;;32.23;19.63;;;0.70;99.90;;;;;;5061256;28;20492;-65
2022/12/04 00:19:34;;;;;;;35.43;20.57;;;0.70;99.90;;;;;;5060454;28;20468;-65
2022/12/04 00:22:01;;;;;;;33.47;18.60;;;0.80;99.90;;;;;;5060593;28;20479;-65
2022/12/04 00:24:29;;;;;;;36.37;21.60;;;0.80;99.90;;;;;;5060225;28;20489;-65
2022/12/04 00:26:57;;;;;;;33.73;19.17;;;0.70;99.90;;;;;;5060625;28;20489;-65
2022/12/04 00:29:24;;;;;;;36.27;20.83;;;0.70;99.90;;;;;;5060377;28;20501;-65
2022/12/04 00:31:51;;;;;;;38.63;20.90;;;0.70;99.90;;;;;;5060130;28;20517;-65
2022/12/04 00:34:21;;;;;;;30.83;20.17;;;0.60;99.90;;;;;;5060285;28;20463;-65
2022/12/04 00:36:48;;;;;;;35.50;19.67;;;0.70;99.90;;;;;;5060462;28;20802;-65
2022/12/04 00:39:15;;;;;;;30.77;19.70;;;0.70;99.90;;;;;;5060268;28;20560;-64
2022/12/04 00:41:42;;;;;;;39.20;19.90;;;0.70;99.90;;;;;;5060605;28;20461;-65
2022/12/04 00:44:11;;;;;;;33.90;21.07;;;0.70;99.90;;;;;;5060586;28;20448;-65
2022/12/04 00:46:38;;;;;;;32.20;21.23;;;0.70;99.90;;;;;;5060077;28;20476;-65
2022/12/04 00:49:05;;;;;;;34.60;22.00;;;0.70;99.90;;;;;;5060104;28;20458;-65
2022/12/04 00:51:32;;;;;;;32.00;20.10;;;0.70;99.90;;;;;;5059998;28;20510;-65
2022/12/04 00:53:59;;;;;;;30.83;19.53;;;0.70;99.90;;;;;;5059783;28;20439;-65
2022/12/04 00:56:28;;;;;;;36.17;21.70;;;0.70;99.90;;;;;;5060393;28;20466;-64
2022/12/04 00:58:57;;;;;;;32.93;21.13;;;0.70;99.90;;;;;;5059739;28;20461;-65
2022/12/04 01:01:27;;;;;;;33.33;20.00;;;0.70;99.90;;;;;;5059784;28;20473;-65
2022/12/04 01:03:55;;;;;;;35.27;21.30;;;0.70;99.90;;;;;;5060334;28;20463;-64
2022/12/04 01:06:25;;;;;;;40.00;20.10;;;0.70;99.90;;;;;;5060312;28;20437;-65
2022/12/04 01:08:55;;;;;;;33.37;21.70;;;0.70;99.90;;;;;;5059782;28;20877;-65
2022/12/04 01:11:23;;;;;;;35.77;21.23;;;0.70;99.90;;;;;;5060279;28;20497;-65
2022/12/04 01:13:50;;;;;;;32.07;20.67;;;0.70;99.90;;;;;;5059424;28;20535;-64
2022/12/04 01:16:20;;;;;;;33.63;19.53;;;0.70;99.90;;;;;;5059570;28;20441;-64
2022/12/04 01:18:49;;;;;;;31.40;18.63;;;0.70;99.90;;;;;;5059865;28;20541;-64
2022/12/04 01:21:17;;;;;;;34.17;20.10;;;0.70;99.90;;;;;;5059820;28;20463;-65
2022/12/04 01:23:44;;;;;;;33.93;21.47;;;0.60;99.90;;;;;;5059699;28;20557;-64
2022/12/04 01:26:12;;;;;;;31.10;19.50;;;0.60;99.90;;;;;;5060021;28;20485;-65
2022/12/04 01:28:40;;;;;;;31.07;20.40;;;0.60;99.90;;;;;;5058341;28;20504;-65
2022/12/04 01:31:09;;;;;;;34.50;20.50;;;0.60;99.90;;;;;;5059747;28;20498;-65
2022/12/04 01:33:37;;;;;;;35.37;21.10;;;0.60;99.90;;;;;;5058956;28;20532;-64
2022/12/04 01:36:09;;;;;;;33.17;20.90;;;0.70;99.90;;;;;;5059544;28;20865;-64
2022/12/04 01:38:36;;;;;;;32.37;19.90;;;0.70;99.90;;;;;;5058940;28;20465;-64
2022/12/04 01:41:05;;;;;;;34.37;20.73;;;0.70;99.90;;;;;;5059320;28;20437;-64
2022/12/04 01:43:33;;;;;;;33.47;21.33;;;0.60;99.90;;;;;;5059658;28;20466;-64
2022/12/04 01:46:02;;;;;;;34.10;20.00;;;0.60;99.90;;;;;;5059394;28;20465;-64
2022/12/04 01:48:31;;;;;;;35.30;21.37;;;0.60;99.90;;;;;;5059559;28;20447;-64
2022/12/04 01:51:04;;;;;;;31.73;20.23;;;0.60;99.90;;;;;;5059034;28;20464;-65
2022/12/04 01:53:35;;;;;;;32.50;21.07;;;0.60;99.90;;;;;;5059274;28;20477;-65
2022/12/04 01:56:03;;;;;;;36.13;22.73;;;0.60;99.90;;;;;;5059261;28;20466;-64
2022/12/04 01:58:35;;;;;;;36.57;20.63;;;0.60;99.90;;;;;;5059374;28;20458;-65
2022/12/04 02:01:06;;;;;;;35.30;21.00;;;0.60;99.90;;;;;;5058742;28;20461;-65
2022/12/04 02:03:34;;;;;;;34.57;21.37;;;0.60;99.90;;;;;;5058538;28;20443;-65
2022/12/04 02:06:02;;;;;;;37.00;22.87;;;0.60;99.90;;;;;;5059393;28;20449;-65
2022/12/04 02:08:30;;;;;;;38.23;23.23;;;0.60;99.90;;;;;;5059401;28;20462;-65
2022/12/04 02:11:10;;;;;;;36.67;21.60;;;0.50;99.90;;;;;;5058490;28;20917;-65
2022/12/04 02:13:48;;;;;;;36.93;21.43;;;0.60;99.90;;;;;;5059000;28;20437;-65
2022/12/04 02:16:19;;;;;;;33.00;20.53;;;0.60;99.90;;;;;;5058860;28;20886;-65
2022/12/04 02:18:56;;;;;;;35.53;20.67;;;0.50;99.90;;;;;;5057925;28;20437;-65
2022/12/04 02:21:29;;;;;;;37.07;21.63;;;0.50;99.90;;;;;;5058442;28;20432;-65
2022/12/04 02:24:21;;;;;;;38.83;22.23;;;0.50;99.90;;;;;;5058451;28;20467;-65
2022/12/04 02:26:55;;;;;;;35.23;19.60;;;0.50;99.90;;;;;;5057423;28;20432;-64
2022/12/04 02:29:33;;;;;;;36.60;21.27;;;0.50;99.90;;;;;;5058666;28;20921;-64
2022/12/04 02:32:12;;;;;;;37.03;21.80;;;0.50;99.90;;;;;;5058317;28;20504;-64
2022/12/04 02:34:45;;;;;;;34.50;20.60;;;0.50;99.90;;;;;;5058151;28;20890;-64
2022/12/04 02:37:17;;;;;;;29.63;18.50;;;0.50;99.90;;;;;;5058415;28;20822;-65
2022/12/04 02:39:52;;;;;;;33.90;18.80;;;0.50;99.90;;;;;;5058161;28;20468;-64
2022/12/04 02:42:25;;;;;;;37.20;23.03;;;0.50;99.90;;;;;;5058377;28;20445;-64
2022/12/04 02:44:58;;;;;;;39.90;22.50;;;0.50;99.90;;;;;;5058169;28;20870;-65
2022/12/04 02:47:27;;;;;;;34.40;19.00;;;0.50;99.90;;;;;;5057971;28;20439;-64
2022/12/04 02:49:58;;;;;;;36.70;22.73;;;0.50;99.90;;;;;;5057560;28;20458;-64
2022/12/04 02:52:31;;;;;;;37.10;19.77;;;0.40;99.90;;;;;;5058539;28;20503;-64
2022/12/04 02:55:02;;;;;;;38.77;20.50;;;0.50;99.90;;;;;;5057891;28;20463;-64
2022/12/04 02:57:35;;;;;;;37.47;19.73;;;0.50;99.90;;;;;;5058002;28;20524;-64
2022/12/04 03:00:07;;;;;;;35.40;21.67;;;0.50;99.90;;;;;;5057835;28;20880;-65
2022/12/04 03:02:39;;;;;;;32.23;19.27;;;0.50;99.90;;;;;;5057754;28;20433;-65
2022/12/04 03:05:10;;;;;;;31.13;19.80;;;0.50;99.90;;;;;;5057781;28;20472;-64
2022/12/04 03:07:44;;;;;;;33.37;19.93;;;0.40;99.90;;;;;;5058149;28;20746;-64
2022/12/04 03:10:15;;;;;;;33.30;19.47;;;0.50;99.90;;;;;;5057801;28;20479;-65
2022/12/04 03:12:46;;;;;;;28.67;19.60;;;0.50;99.90;;;;;;5057201;28;20494;-65
2022/12/04 03:15:20;;;;;;;33.60;20.40;;;0.50;99.90;;;;;;5057386;28;20447;-64
2022/12/04 03:17:52;;;;;;;38.50;21.40;;;0.40;99.90;;;;;;5056797;28;20472;-65
2022/12/04 03:20:21;;;;;;;33.93;19.77;;;0.50;99.90;;;;;;5057750;28;20439;-65
2022/12/04 03:22:54;;;;;;;35.50;21.33;;;0.30;99.90;;;;;;5056629;28;20464;-65
2022/12/04 03:25:26;;;;;;;40.33;19.97;;;0.40;99.90;;;;;;5056993;28;20941;-64
2022/12/04 03:27:58;;;;;;;28.03;18.57;;;0.40;99.90;;;;;;5057563;28;20526;-64
2022/12/04 03:30:35;;;;;;;30.37;18.90;;;0.40;99.90;;;;;;5057772;28;20467;-65
2022/12/04 03:33:10;;;;;;;32.10;19.90;;;0.40;99.90;;;;;;5057207;28;20457;-65
2022/12/04 03:35:44;;;;;;;28.80;19.07;;;0.40;99.90;;;;;;5057279;28;20461;-64
2022/12/04 03:38:18;;;;;;;35.00;18.87;;;0.30;99.90;;;;;;5057238;28;20542;-64
2022/12/04 03:40:54;;;;;;;32.70;19.67;;;0.30;99.90;;;;;;5057190;28;20468;-64
2022/12/04 03:43:26;;;;;;;31.47;17.90;;;0.40;99.90;;;;;;5057603;28;20470;-65
2022/12/04 03:45:59;;;;;;;28.60;17.50;;;0.30;99.90;;;;;;5057269;28;20458;-64
2022/12/04 03:48:31;;;;;;;29.90;19.03;;;0.20;99.90;;;;;;5057079;28;20461;-65
2022/12/04 03:51:07;;;;;;;30.70;17.53;;;0.20;99.90;;;;;;5056729;28;20454;-65
2022/12/04 03:53:39;;;;;;;28.90;17.47;;;0.10;99.90;;;;;;5057390;28;20902;-64
2022/12/04 03:56:12;;;;;;;28.97;18.13;;;0.10;99.90;;;;;;5057627;28;20462;-65
2022/12/04 03:58:43;;;;;;;27.60;17.20;;;0.00;99.90;;;;;;5056802;28;20462;-65
2022/12/04 04:01:14;;;;;;;27.83;17.27;;;0.00;99.90;;;;;;5056894;28;20465;-64
2022/12/04 04:03:46;;;;;;;32.83;18.33;;;0.00;99.90;;;;;;5056993;28;20477;-65
2022/12/04 04:06:19;;;;;;;30.93;19.50;;;0.00;99.90;;;;;;5057346;28;20447;-65
2022/12/04 04:08:50;;;;;;;26.80;17.33;;;0.10;99.90;;;;;;5056986;28;20465;-65
2022/12/04 04:11:21;;;;;;;29.40;17.47;;;0.10;99.90;;;;;;5056695;28;20488;-65
2022/12/04 04:25:07;;;;;;;25.97;16.47;;;0.20;99.90;;;;;;5056594;28;20455;-65
2022/12/04 04:27:34;;;;;;;30.50;17.90;;;0.30;99.90;;;;;;5056966;28;20466;-65
2022/12/04 04:30:01;;;;;;;26.27;16.90;;;0.30;99.90;;;;;;5055811;28;20740;-65
2022/12/04 04:32:38;;;;;;;26.73;16.07;;;0.40;99.90;;;;;;5057142;28;20497;-65
2022/12/04 04:35:15;;;;;;;24.70;15.83;;;0.40;99.90;;;;;;5058151;28;20463;-65
2022/12/04 04:37:53;;;;;;;23.23;15.97;;;0.40;99.90;;;;;;5060648;28;20774;-65
2022/12/04 04:40:25;;;;;;;27.63;16.27;;;0.40;99.90;;;;;;5060857;28;20546;-65
2022/12/04 04:43:00;;;;;;;22.83;15.37;;;0.40;99.90;;;;;;5060639;28;20462;-64
2022/12/04 04:45:33;;;;;;;23.43;15.40;;;0.30;99.90;;;;;;5060459;28;20900;-65
2022/12/04 04:48:06;;;;;;;25.30;16.27;;;0.20;99.90;;;;;;5060492;28;20461;-65
2022/12/04 04:50:35;;;;;;;19.73;14.07;;;0.10;99.90;;;;;;5060892;28;20743;-65
2022/12/04 04:53:06;;;;;;;19.03;13.50;;;0.10;99.90;;;;;;5060536;28;20499;-65
2022/12/04 04:55:35;;;;;;;23.77;15.20;;;0.10;99.90;;;;;;5060281;28;20899;-65
2022/12/04 04:58:09;;;;;;;24.77;14.67;;;0.00;99.90;;;;;;5060463;28;20465;-65
2022/12/04 05:00:37;;;;;;;20.20;12.83;;;0.00;99.90;;;;;;5059872;28;20761;-66
2022/12/04 05:03:06;;;;;;;22.60;13.40;;;-0.10;99.90;;;;;;5060228;28;20463;-66
2022/12/04 05:05:33;;;;;;;22.90;14.33;;;-0.10;99.90;;;;;;5060087;28;20469;-66
2022/12/04 05:08:00;;;;;;;23.13;15.13;;;-0.10;99.90;;;;;;5060190;28;20473;-66
2022/12/04 05:10:27;;;;;;;23.00;14.60;;;-0.10;99.90;;;;;;5060165;28;20488;-66
2022/12/04 05:12:54;;;;;;;21.87;14.27;;;-0.10;99.90;;;;;;5059580;28;20933;-66
2022/12/04 05:15:21;;;;;;;21.13;14.03;;;-0.10;99.90;;;;;;5060062;28;20759;-66
2022/12/04 05:17:48;;;;;;;21.03;13.93;;;-0.10;99.90;;;;;;5060028;28;20465;-66
2022/12/04 05:20:17;;;;;;;20.00;13.10;;;0.00;99.90;;;;;;5059171;28;20451;-66
2022/12/04 05:22:44;;;;;;;22.73;15.43;;;0.00;99.90;;;;;;5059513;28;20465;-66
2022/12/04 05:25:12;;;;;;;23.07;15.00;;;0.10;99.90;;;;;;5059347;28;20489;-66
2022/12/04 05:27:39;;;;;;;25.20;15.97;;;0.00;99.90;;;;;;5060161;28;20774;-66
2022/12/04 05:30:07;;;;;;;20.63;14.20;;;0.10;99.90;;;;;;5059686;28;20470;-66
2022/12/04 05:32:34;;;;;;;21.70;13.53;;;0.10;99.90;;;;;;5059755;28;20492;-66
2022/12/04 05:35:02;;;;;;;20.40;13.40;;;0.10;99.90;;;;;;5059300;28;20464;-66
2022/12/04 05:37:30;;;;;;;21.97;13.30;;;0.10;99.90;;;;;;5059311;28;20494;-66
2022/12/04 05:39:57;;;;;;;20.80;12.87;;;0.10;99.90;;;;;;5059328;28;20481;-66
2022/12/04 05:42:24;;;;;;;20.60;12.60;;;0.10;99.90;;;;;;5059334;28;20436;-66
2022/12/04 05:44:52;;;;;;;21.60;12.00;;;0.10;99.90;;;;;;5059194;28;20907;-66
2022/12/04 05:47:19;;;;;;;18.00;12.70;;;0.10;99.90;;;;;;5058450;28;20448;-66
2022/12/04 05:49:46;;;;;;;21.00;12.60;;;0.10;99.90;;;;;;5059107;28;20439;-66
2022/12/04 05:52:14;;;;;;;20.43;13.80;;;0.10;99.90;;;;;;5059306;28;20467;-66
2022/12/04 05:54:42;;;;;;;19.87;13.30;;;0.20;99.90;;;;;;5058906;28;20444;-66
2022/12/04 05:57:10;;;;;;;17.07;12.13;;;0.10;99.90;;;;;;5058853;28;20483;-66
2022/12/04 05:59:37;;;;;;;19.03;12.70;;;0.20;99.90;;;;;;5058765;28;20472;-66
2022/12/04 06:02:04;;;;;;;21.53;12.50;;;0.30;99.90;;;;;;5059214;28;20555;-66
2022/12/04 06:04:31;;;;;;;19.73;12.77;;;0.10;99.90;;;;;;5058410;28;20889;-66
2022/12/04 06:06:58;;;;;;;17.87;12.50;;;0.20;99.90;;;;;;5058590;28;20473;-66
2022/12/04 06:09:25;;;;;;;18.07;12.50;;;0.20;99.90;;;;;;5058776;28;20906;-67
2022/12/04 06:11:58;;;;;;;20.60;13.03;;;0.20;99.90;;;;;;5058718;28;20494;-66
2022/12/04 06:14:25;;;;;;;18.77;11.60;;;0.30;99.90;;;;;;5058946;28;20562;-66
2022/12/04 06:16:52;;;;;;;17.23;11.23;;;0.20;99.90;;;;;;5058306;28;20443;-67
2022/12/04 06:19:20;;;;;;;17.00;11.43;;;0.20;99.90;;;;;;5058354;28;20466;-66
2022/12/04 06:21:49;;;;;;;17.23;11.80;;;0.20;99.90;;;;;;5058905;28;20469;-65
2022/12/04 06:24:20;;;;;;;17.07;10.90;;;0.30;99.90;;;;;;5058354;28;20925;-66
2022/12/04 06:26:48;;;;;;;13.13;9.93;;;0.30;99.90;;;;;;5058300;28;20473;-66
2022/12/04 06:29:16;;;;;;;12.63;9.10;;;0.30;99.90;;;;;;5058007;28;20497;-66
2022/12/04 06:31:43;;;;;;;13.10;9.63;;;0.40;99.90;;;;;;5057941;28;20531;-67
2022/12/04 06:34:13;;;;;;;12.20;10.37;;;0.30;99.90;;;;;;5058695;28;20444;-66
2022/12/04 06:36:40;;;;;;;13.43;9.40;;;0.40;99.90;;;;;;5058190;28;20461;-66
2022/12/04 06:39:08;;;;;;;12.60;9.77;;;0.30;99.90;;;;;;5058487;28;20431;-66
2022/12/04 06:41:35;;;;;;;12.93;9.63;;;0.30;99.90;;;;;;5058093;28;20469;-66
2022/12/04 06:44:02;;;;;;;14.50;11.30;;;0.30;99.90;;;;;;5058214;28;20464;-67
2022/12/04 06:46:32;;;;;;;13.87;9.97;;;0.30;99.90;;;;;;5057810;28;20512;-66
2022/12/04 06:49:01;;;;;;;12.83;9.33;;;0.40;99.90;;;;;;5057879;28;20473;-67
2022/12/04 06:51:30;;;;;;;14.50;9.30;;;0.40;99.90;;;;;;5058236;28;20778;-66
2022/12/04 06:53:58;;;;;;;12.20;9.03;;;0.40;99.90;;;;;;5058127;28;20501;-66
2022/12/04 06:56:27;;;;;;;13.20;9.40;;;0.30;99.90;;;;;;5058421;28;20763;-66
2022/12/04 06:58:56;;;;;;;10.43;8.40;;;0.40;99.90;;;;;;5057907;28;20863;-66
2022/12/04 07:01:25;;;;;;;11.23;8.97;;;0.40;99.90;;;;;;5057683;28;20469;-66
2022/12/04 07:03:54;;;;;;;12.50;9.13;;;0.40;99.90;;;;;;5058267;28;20468;-66
2022/12/04 07:06:23;;;;;;;10.97;8.70;;;0.40;99.90;;;;;;5057408;28;20462;-66
2022/12/04 07:08:53;;;;;;;11.53;8.87;;;0.30;99.90;;;;;;5057712;28;20468;-66
2022/12/04 07:11:20;;;;;;;10.77;8.53;;;0.30;99.90;;;;;;5057952;28;20538;-66
2022/12/04 07:13:48;;;;;;;12.07;8.60;;;0.40;99.90;;;;;;5057583;28;20501;-66
2022/12/04 07:16:16;;;;;;;13.03;9.60;;;0.40;99.90;;;;;;5058104;28;20468;-67
2022/12/04 07:18:44;;;;;;;13.53;9.87;;;0.40;99.90;;;;;;5056443;28;20470;-66
2022/12/04 07:21:15;;;;;;;12.50;9.60;;;0.40;99.90;;;;;;5057447;28;20468;-67
2022/12/04 07:23:43;;;;;;;12.97;9.83;;;0.40;99.90;;;;;;5057509;28;20454;-66
2022/12/04 07:26:11;;;;;;;15.00;9.93;;;0.40;99.90;;;;;;5057812;28;20464;-66
2022/12/04 07:28:40;;;;;;;14.70;9.63;;;0.30;99.90;;;;;;5057080;28;20457;-66
2022/12/04 07:31:09;;;;;;;12.77;10.47;;;0.40;99.90;;;;;;5056744;28;20440;-66
2022/12/04 07:33:37;;;;;;;13.70;10.17;;;0.40;99.90;;;;;;5057416;28;20497;-66
2022/12/04 07:36:06;;;;;;;14.27;9.97;;;0.40;99.90;;;;;;5057089;28;20473;-65
2022/12/04 07:38:35;;;;;;;13.57;10.27;;;0.50;99.90;;;;;;5057655;28;20458;-67
2022/12/04 07:41:04;;;;;;;13.63;11.00;;;0.50;99.90;;;;;;5057617;28;20468;-66
2022/12/04 07:43:32;;;;;;;13.93;10.03;;;0.50;99.90;;;;;;5057148;28;20448;-66
2022/12/04 07:46:05;;;;;;;13.97;9.80;;;0.50;99.90;;;;;;5057573;28;20466;-66
2022/12/04 07:48:32;;;;;;;11.43;9.57;;;0.50;99.90;;;;;;5057823;28;20465;-66
2022/12/04 07:51:03;;;;;;;15.33;11.43;;;0.50;99.90;;;;;;5056702;28;20439;-66
2022/12/04 07:53:30;;;;;;;12.97;10.17;;;0.60;99.90;;;;;;5057203;28;20571;-67
2022/12/04 07:55:59;;;;;;;12.60;10.43;;;0.50;99.90;;;;;;5057569;28;20883;-67
2022/12/04 07:58:26;;;;;;;13.53;9.60;;;0.60;99.90;;;;;;5057274;28;20463;-66
2022/12/04 08:00:53;;;;;;;13.93;10.37;;;0.50;99.90;;;;;;5056970;28;20442;-66
2022/12/04 08:03:20;;;;;;;13.70;10.77;;;0.60;99.90;;;;;;5057060;28;20528;-65
2022/12/04 08:05:47;;;;;;;14.90;10.90;;;0.60;99.90;;;;;;5057031;28;20488;-66
2022/12/04 08:08:15;;;;;;;13.90;10.40;;;0.50;99.90;;;;;;5056022;28;20492;-66
2022/12/04 08:10:42;;;;;;;14.87;10.60;;;0.50;99.90;;;;;;5059513;28;20551;-66
2022/12/04 08:13:10;;;;;;;13.17;10.00;;;0.50;99.90;;;;;;5060857;28;20584;-66
2022/12/04 08:15:37;;;;;;;16.07;10.63;;;0.60;99.90;;;;;;5060905;28;20472;-66
2022/12/04 08:18:04;;;;;;;13.73;10.23;;;0.60;99.90;;;;;;5057589;28;20757;-65
2022/12/04 08:20:32;;;;;;;14.30;12.17;;;0.60;99.90;;;;;;5048482;28;20457;-65
2022/12/04 08:22:59;;;;;;;14.53;10.70;;;0.60;99.90;;;;;;5049558;28;20480;-66
2022/12/04 08:25:26;;;;;;;14.33;10.70;;;0.60;99.90;;;;;;5047954;28;20476;-65
2022/12/04 08:27:53;;;;;;;15.20;11.40;;;0.70;99.90;;;;;;5047350;28;20455;-65
2022/12/04 08:30:22;;;;;;;13.20;10.10;;;0.70;99.90;;;;;;5047341;28;20884;-65
2022/12/04 08:32:49;;;;;;;12.60;9.70;;;0.70;99.90;;;;;;5054664;28;20493;-65
2022/12/04 08:35:17;;;;;;;16.13;11.23;;;0.80;99.90;;;;;;5060340;28;20465;-65
2022/12/04 08:37:44;;;;;;;12.47;9.70;;;0.80;99.90;;;;;;5060475;28;20469;-65
2022/12/04 08:40:12;;;;;;;13.53;10.07;;;0.90;99.90;;;;;;5048838;28;20462;-65
2022/12/04 08:42:39;;;;;;;15.20;9.97;;;0.80;99.90;;;;;;5039539;28;20465;-65
2022/12/04 08:45:07;;;;;;;13.70;9.57;;;0.90;99.90;;;;;;5040021;28;20473;-65
2022/12/04 08:47:36;;;;;;;14.50;9.83;;;0.90;99.90;;;;;;5039846;28;20481;-65
2022/12/04 08:50:03;;;;;;;12.50;9.50;;;0.90;99.90;;;;;;5038986;28;20463;-65
2022/12/04 08:52:31;;;;;;;14.43;10.67;;;0.90;99.90;;;;;;5039056;28;20473;-65
2022/12/04 08:54:58;;;;;;;15.83;11.40;;;0.90;1.00;;;;;;5038945;28;20463;-65
2022/12/04 08:57:25;;;;;;;13.30;10.23;;;0.90;99.90;;;;;;5040689;28;20459;-65
2022/12/04 08:59:52;;;;;;;13.93;10.30;;;0.90;99.90;;;;;;5048329;28;20454;-65
2022/12/04 09:02:19;;;;;;;14.70;10.30;;;1.00;99.90;;;;;;5049784;28;20454;-64
2022/12/04 09:04:48;;;;;;;15.50;11.63;;;1.00;99.90;;;;;;5048651;28;20445;-65
2022/12/04 09:07:15;;;;;;;14.97;11.87;;;1.10;99.90;;;;;;5047495;28;20900;-65
2022/12/04 09:09:42;;;;;;;12.90;10.60;;;1.00;99.90;;;;;;5046966;28;20459;-65
2022/12/04 09:12:09;;;;;;;15.70;11.63;;;1.00;99.90;;;;;;5049204;28;20913;-65
2022/12/04 09:14:38;;;;;;;13.47;9.93;;;1.00;99.90;;;;;;5039803;28;20469;-65
2022/12/04 09:17:05;;;;;;;15.77;11.83;;;0.90;1.00;;;;;;5039595;28;20456;-65
2022/12/04 09:19:34;;;;;;;14.00;10.10;;;1.00;1.00;;;;;;5038844;28;20834;-64
2022/12/04 09:22:02;;;;;;;14.30;11.00;;;0.90;1.00;;;;;;5036929;28;20499;-65
2022/12/04 09:24:30;;;;;;;14.43;11.53;;;0.90;99.90;;;;;;5045223;28;20489;-64
2022/12/04 09:26:57;;;;;;;18.00;12.77;;;1.00;99.90;;;;;;5058018;28;20465;-64
2022/12/04 09:29:25;;;;;;;15.90;11.80;;;1.10;99.90;;;;;;5058096;28;20883;-64
2022/12/04 09:31:52;;;;;;;15.93;11.37;;;1.20;99.90;;;;;;5058129;28;20463;-64
2022/12/04 09:34:19;;;;;;;17.50;11.30;;;1.20;99.90;;;;;;5057469;28;20486;-64
2022/12/04 09:36:46;;;;;;;14.03;11.33;;;1.30;99.90;;;;;;5058662;28;20448;-64
2022/12/04 09:39:15;;;;;;;16.10;11.67;;;1.30;99.90;;;;;;5059123;28;20462;-64
2022/12/04 09:42:08;;;;;;;14.37;10.73;;;1.30;99.90;;;;;;5059331;28;20444;-64
2022/12/04 09:44:39;;;;;;;14.53;11.40;;;1.30;99.90;;;;;;5058351;28;20451;-64
2022/12/04 09:47:14;;;;;;;15.70;11.33;;;1.30;99.90;;;;;;5058697;28;20463;-65
2022/12/04 09:49:46;;;;;;;15.60;11.60;;;1.30;99.90;;;;;;5059325;28;20462;-64
2022/12/04 09:52:25;;;;;;;15.00;10.53;;;1.30;99.90;;;;;;5058590;28;20458;-64
2022/12/04 09:54:56;;;;;;;12.83;10.63;;;1.30;99.90;;;;;;5038731;28;21009;-65
2022/12/04 09:57:29;;;;;;;16.40;11.00;;;1.30;99.90;;;;;;5038534;28;20462;-64
2022/12/04 09:59:57;;;;;;;12.70;10.67;;;1.30;99.90;;;;;;5038802;28;20473;-65
2022/12/04 10:02:37;;;;;;;14.57;11.57;;;1.20;99.90;;;;;;5038730;28;20466;-65
2022/12/04 10:05:04;;;;;;;17.77;11.33;;;1.20;99.90;;;;;;5036204;28;20557;-64
2022/12/04 10:07:36;;;;;;;14.07;10.60;;;1.20;99.90;;;;;;5035908;28;20746;-64
2022/12/04 10:10:13;;;;;;;14.57;11.70;;;1.20;99.90;;;;;;5036447;28;20478;-65
2022/12/04 10:12:50;;;;;;;15.07;11.07;;;1.20;99.90;;;;;;5037111;28;20733;-65
2022/12/04 10:15:29;;;;;;;16.57;11.40;;;1.10;99.90;;;;;;5036909;28;20463;-64
2022/12/04 10:18:12;;;;;;;13.90;11.10;;;1.20;99.90;;;;;;5037105;28;20473;-64
2022/12/04 10:20:51;;;;;;;14.50;10.93;;;1.20;99.90;;;;;;5037983;28;20477;-64
2022/12/04 10:23:26;;;;;;;14.00;11.70;;;1.30;99.90;;;;;;5036976;28;20463;-65
2022/12/04 10:25:55;;;;;;;16.63;10.60;;;1.40;99.90;;;;;;5036863;28;20460;-64
2022/12/04 10:28:29;;;;;;;12.40;10.40;;;1.40;99.90;;;;;;5036859;28;20470;-64
2022/12/04 10:31:00;;;;;;;15.87;11.83;;;1.40;99.90;;;;;;5036152;28;20463;-65
2022/12/04 10:33:35;;;;;;;15.60;10.03;;;1.40;99.90;;;;;;5036552;28;20997;-65
2022/12/04 10:36:03;;;;;;;12.50;10.03;;;1.50;96.40;;;;;;5052199;28;20635;-65
2022/12/04 10:38:37;;;;;;;15.13;11.10;;;1.60;1.00;;;;;;5057572;28;20458;-65
2022/12/04 10:41:12;;;;;;;15.67;11.00;;;1.60;1.00;;;;;;5058323;28;20461;-65
2022/12/04 10:43:43;;;;;;;14.10;10.60;;;1.60;1.00;;;;;;5056423;28;20565;-65
2022/12/04 10:46:14;;;;;;;14.90;11.13;;;1.60;1.00;;;;;;5057280;28;20462;-65
2022/12/04 10:48:44;;;;;;;14.40;11.10;;;1.80;1.00;;;;;;5056440;28;20429;-65
2022/12/04 10:51:15;;;;;;;12.67;9.50;;;1.80;1.00;;;;;;5056414;28;20466;-65
2022/12/04 10:53:44;;;;;;;13.57;10.27;;;1.70;1.00;;;;;;5057487;28;20956;-65
2022/12/04 10:56:18;;;;;;;12.73;9.57;;;1.70;1.00;;;;;;5057349;28;20441;-65
2022/12/04 10:58:55;;;;;;;13.80;9.83;;;1.70;1.00;;;;;;5057307;28;20428;-65
2022/12/04 11:01:23;;;;;;;14.07;9.97;;;1.70;1.00;;;;;;5057704;28;20508;-66
2022/12/04 11:03:57;;;;;;;14.60;10.80;;;1.80;1.00;;;;;;5057737;28;20458;-66
2022/12/04 11:06:26;;;;;;;14.17;10.40;;;1.90;1.00;;;;;;5057592;28;20468;-66
2022/12/04 11:08:54;;;;;;;15.07;10.40;;;2.00;1.00;;;;;;5055614;28;20924;-66
2022/12/04 11:11:28;;;;;;;13.40;10.50;;;2.10;1.00;;;;;;5055708;28;20458;-66
2022/12/04 11:14:07;;;;;;;14.13;10.53;;;2.10;1.00;;;;;;5055916;28;20482;-66
2022/12/04 11:16:37;;;;;;;13.50;9.90;;;2.10;99.90;;;;;;5051395;28;20466;-66
2022/12/04 11:19:20;;;;;;;14.83;9.97;;;2.10;99.90;;;;;;5055455;28;20466;-66
2022/12/04 11:21:47;;;;;;;13.90;9.60;;;2.10;99.90;;;;;;5055892;28;20887;-66
2022/12/04 11:24:21;;;;;;;13.70;10.47;;;2.20;99.90;;;;;;5049492;28;20755;-66
2022/12/04 11:26:50;;;;;;;13.50;10.07;;;2.20;99.90;;;;;;5057492;28;20886;-66
2022/12/04 11:29:20;;;;;;;12.17;9.17;;;2.10;99.90;;;;;;5057306;28;20469;-66
2022/12/04 11:31:49;;;;;;;14.33;11.77;;;2.10;99.90;;;;;;5056876;28;20488;-67
2022/12/04 11:34:20;;;;;;;14.90;10.53;;;2.10;99.90;;;;;;5057307;28;20498;-67
2022/12/04 11:36:52;;;;;;;14.63;11.87;;;2.00;99.90;;;;;;5057113;28;20467;-67
2022/12/04 11:39:24;;;;;;;14.53;11.00;;;2.00;1.00;;;;;;5057313;28;20515;-66
2022/12/04 11:42:04;;;;;;;13.50;10.23;;;2.00;1.00;;;;;;5057153;28;20463;-66
2022/12/04 11:44:34;;;;;;;16.03;11.27;;;2.10;1.00;;;;;;5056529;28;20458;-66
2022/12/04 11:47:04;;;;;;;12.00;8.73;;;2.00;1.00;;;;;;5052696;28;20556;-66
2022/12/04 11:49:32;;;;;;;13.37;10.33;;;2.00;1.00;;;;;;5057468;28;20898;-66
2022/12/04 11:52:16;;;;;;;14.17;9.87;;;2.10;1.00;;;;;;5057330;28;20474;-66
2022/12/04 11:54:54;;;;;;;15.80;10.93;;;2.20;1.00;;;;;;5057112;28;20487;-66
2022/12/04 11:57:33;;;;;;;16.50;11.30;;;2.20;1.00;;;;;;5056722;28;20907;-67
2022/12/04 12:00:09;;;;;;;13.80;10.10;;;2.20;1.00;;;;;;5057116;28;20462;-67
2022/12/04 12:02:50;;;;;;;16.13;12.00;;;2.20;1.00;;;;;;5056530;28;20466;-67
2022/12/04 12:05:53;;;;;;;15.80;11.90;;;2.20;1.00;;;;;;5056922;28;20458;-67
2022/12/04 12:08:34;;;;;;;14.57;10.73;;;2.20;1.00;;;;;;5057181;28;20488;-66
2022/12/04 12:11:09;;;;;;;17.60;12.10;;;2.20;1.00;;;;;;5056965;28;20876;-67
2022/12/04 12:13:49;;;;;;;15.70;11.60;;;2.20;1.00;;;;;;5057279;28;20497;-67
2022/12/04 12:16:27;;;;;;;16.77;12.20;;;2.10;1.00;;;;;;5055281;28;20437;-67
2022/12/04 12:19:15;;;;;;;16.47;12.83;;;2.10;1.00;;;;;;5053034;28;20914;-67
2022/12/04 12:21:54;;;;;;;15.70;12.03;;;2.20;1.00;;;;;;5054123;28;20462;-67
2022/12/04 12:24:26;;;;;;;18.17;13.30;;;2.10;1.00;;;;;;5051104;28;20456;-67
2022/12/04 12:27:07;;;;;;;17.23;11.93;;;2.10;1.00;;;;;;5044274;28;20447;-67
2022/12/04 12:29:52;;;;;;;16.30;12.33;;;2.10;1.00;;;;;;5044185;28;20462;-67
2022/12/04 12:32:43;;;;;;;17.53;12.43;;;2.10;1.00;;;;;;5045372;28;20474;-67
2022/12/04 12:35:21;;;;;;;15.60;12.10;;;2.20;1.00;;;;;;5046724;28;20532;-67
2022/12/04 12:37:52;;;;;;;19.07;11.10;;;2.20;1.00;;;;;;5044579;28;20451;-68
2022/12/04 12:40:28;;;;;;;16.73;11.23;;;2.30;1.00;;;;;;5045298;28;20461;-69
2022/12/04 12:43:00;;;;;;;15.67;10.80;;;2.30;1.00;;;;;;5044212;28;20459;-68
2022/12/04 12:45:35;;;;;;;16.50;11.23;;;2.30;1.00;;;;;;5045634;28;20701;-68
2022/12/04 12:48:20;;;;;;;16.13;10.53;;;2.40;1.00;;;;;;5044637;28;20454;-68
2022/12/04 12:50:54;;;;;;;16.27;11.23;;;2.30;1.00;;;;;;5043772;28;20543;-68
2022/12/04 12:53:26;;;;;;;17.70;11.73;;;2.30;1.00;;;;;;5046305;28;20761;-68
2022/12/04 12:55:56;;;;;;;18.33;12.80;;;2.30;1.00;;;;;;5046126;28;20454;-67
2022/12/04 12:58:32;;;;;;;18.70;13.10;;;2.40;1.00;;;;;;5051872;28;20467;-68
2022/12/04 13:01:09;;;;;;;17.33;13.10;;;2.50;1.00;;;;;;5050573;28;20461;-68
2022/12/04 13:03:44;;;;;;;17.70;11.30;;;2.50;1.00;;;;;;5052515;28;20462;-68
2022/12/04 13:06:14;;;;;;;16.80;12.30;;;2.60;1.00;;;;;;5052678;28;20484;-67
2022/12/04 13:08:48;;;;;;;16.97;13.37;;;2.50;1.00;;;;;;5047502;28;20521;-67
2022/12/04 13:11:20;;;;;;;17.70;13.30;;;2.50;1.00;;;;;;5046548;28;20900;-67